sensor_id;sensor_type;location;lat;lon;timestamp;P1;durP1;ratioP1;P2;durP2;ratioP2
62479;SDS011;48526;48.846;2.322;2022-12-20T00:01:24;9.50;;;9.00;;
62479;SDS011;48526;48.846;2.322;2022-12-20T00:03:52;9.50;;;9.50;;
62479;SDS011;48526;48.846;2.322;2022-12-20T00:06:19;9.75;;;8.00;;
62479;SDS011;48526;48.846;2.322;2022-12-20T00:08:52;11.75;;;11.00;;
62479;SDS011;48526;48.846;2.322;2022-12-20T00:11:19;7.25;;;7.25;;
62479;SDS011;48526;48.846;2.322;2022-12-20T00:13:47;7.00;;;7.00;;
62479;SDS011;48526;48.846;2.322;2022-12-20T00:16:14;8.25;;;8.25;;
62479;SDS011;48526;48.846;2.322;2022-12-20T00:18:41;8.00;;;7.25;;
62479;SDS011;48526;48.846;2.322;2022-12-20T00:21:08;7.75;;;7.75;;
62479;SDS011;48526;48.846;2.322;2022-12-20T00:23:35;9.00;;;7.75;;
62479;SDS011;48526;48.846;2.322;2022-12-20T00:26:02;8.00;;;8.00;;
62479;SDS011;48526;48.846;2.322;2022-12-20T00:28:29;8.75;;;8.00;;
62479;SDS011;48526;48.846;2.322;2022-12-20T05:02:29;3.00;;;3.00;;
62479;SDS011;48526;48.846;2.322;2022-12-20T05:04:54;4.50;;;3.50;;
62479;SDS011;48526;48.846;2.322;2022-12-20T05:07:21;5.50;;;2.75;;
62479;SDS011;48526;48.846;2.322;2022-12-20T05:09:47;4.00;;;2.75;;
62479;SDS011;48526;48.846;2.322;2022-12-20T05:12:12;7.25;;;3.50;;
62479;SDS011;48526;48.846;2.322;2022-12-20T05:14:38;2.50;;;2.50;;
62479;SDS011;48526;48.846;2.322;2022-12-20T05:17:03;4.75;;;3.50;;
62479;SDS011;48526;48.846;2.322;2022-12-20T05:19:28;2.25;;;2.25;;
62479;SDS011;48526;48.846;2.322;2022-12-20T05:21:54;5.25;;;3.50;;
62479;SDS011;48526;48.846;2.322;2022-12-20T05:24:37;3.75;;;3.00;;
62479;SDS011;48526;48.846;2.322;2022-12-20T05:27:21;2.75;;;2.75;;
62479;SDS011;48526;48.846;2.322;2022-12-20T05:29:47;3.00;;;3.00;;
62479;SDS011;48526;48.846;2.322;2022-12-20T05:32:13;2.25;;;2.00;;
62479;SDS011;48526;48.846;2.322;2022-12-20T05:34:39;3.25;;;3.25;;
62479;SDS011;48526;48.846;2.322;2022-12-20T05:37:04;0.00;;;0.00;;
62479;SDS011;48526;48.846;2.322;2022-12-20T05:39:30;2.00;;;2.00;;
62479;SDS011;48526;48.846;2.322;2022-12-20T05:41:56;7.50;;;3.75;;
62479;SDS011;48526;48.846;2.322;2022-12-20T05:44:21;2.50;;;2.50;;
62479;SDS011;48526;48.846;2.322;2022-12-20T05:46:47;2.25;;;2.25;;
62479;SDS011;48526;48.846;2.322;2022-12-20T05:49:12;3.00;;;3.00;;
62479;SDS011;48526;48.846;2.322;2022-12-20T05:51:38;3.00;;;2.00;;
62479;SDS011;48526;48.846;2.322;2022-12-20T05:54:03;4.75;;;2.50;;
62479;SDS011;48526;48.846;2.322;2022-12-20T05:56:29;4.00;;;3.25;;
62479;SDS011;48526;48.846;2.322;2022-12-20T05:58:55;4.25;;;4.25;;
62479;SDS011;48526;48.846;2.322;2022-12-20T06:01:22;3.25;;;3.25;;
62479;SDS011;48526;48.846;2.322;2022-12-20T06:03:48;4.50;;;3.00;;
62479;SDS011;48526;48.846;2.322;2022-12-20T06:06:15;1.50;;;1.50;;
62479;SDS011;48526;48.846;2.322;2022-12-20T06:08:42;2.75;;;2.00;;
62479;SDS011;48526;48.846;2.322;2022-12-20T06:11:07;1.50;;;1.50;;
62479;SDS011;48526;48.846;2.322;2022-12-20T06:13:33;4.00;;;3.00;;
62479;SDS011;48526;48.846;2.322;2022-12-20T06:16:07;2.75;;;2.75;;
62479;SDS011;48526;48.846;2.322;2022-12-20T06:18:36;2.75;;;2.50;;
62479;SDS011;48526;48.846;2.322;2022-12-20T06:21:01;3.00;;;1.50;;
62479;SDS011;48526;48.846;2.322;2022-12-20T06:23:28;2.00;;;2.00;;
62479;SDS011;48526;48.846;2.322;2022-12-20T06:25:54;2.75;;;1.00;;
62479;SDS011;48526;48.846;2.322;2022-12-20T06:28:21;1.75;;;1.00;;
62479;SDS011;48526;48.846;2.322;2022-12-20T06:30:53;4.00;;;3.00;;
62479;SDS011;48526;48.846;2.322;2022-12-20T06:33:19;1.00;;;1.00;;
62479;SDS011;48526;48.846;2.322;2022-12-20T06:35:45;3.75;;;2.00;;
62479;SDS011;48526;48.846;2.322;2022-12-20T06:38:10;2.50;;;2.00;;
62479;SDS011;48526;48.846;2.322;2022-12-20T06:40:36;2.00;;;2.00;;
62479;SDS011;48526;48.846;2.322;2022-12-20T06:43:02;2.00;;;2.00;;
62479;SDS011;48526;48.846;2.322;2022-12-20T06:45:27;3.00;;;3.00;;
62479;SDS011;48526;48.846;2.322;2022-12-20T06:47:52;3.75;;;1.75;;
62479;SDS011;48526;48.846;2.322;2022-12-20T06:50:18;3.25;;;3.25;;
62479;SDS011;48526;48.846;2.322;2022-12-20T06:52:43;2.00;;;2.00;;
62479;SDS011;48526;48.846;2.322;2022-12-20T06:55:08;6.00;;;4.00;;
62479;SDS011;48526;48.846;2.322;2022-12-20T06:57:34;3.25;;;1.75;;
62479;SDS011;48526;48.846;2.322;2022-12-20T06:59:59;2.00;;;2.00;;
62479;SDS011;48526;48.846;2.322;2022-12-20T07:02:25;2.00;;;1.50;;
62479;SDS011;48526;48.846;2.322;2022-12-20T07:04:50;1.00;;;1.00;;
62479;SDS011;48526;48.846;2.322;2022-12-20T07:07:15;1.25;;;1.25;;
62479;SDS011;48526;48.846;2.322;2022-12-20T07:09:41;1.25;;;1.25;;
62479;SDS011;48526;48.846;2.322;2022-12-20T07:12:10;2.00;;;2.00;;
62479;SDS011;48526;48.846;2.322;2022-12-20T07:15:04;2.00;;;2.00;;
62479;SDS011;48526;48.846;2.322;2022-12-20T07:17:30;2.25;;;2.25;;
62479;SDS011;48526;48.846;2.322;2022-12-20T07:19:55;2.50;;;2.50;;
62479;SDS011;48526;48.846;2.322;2022-12-20T07:22:20;3.75;;;3.00;;
62479;SDS011;48526;48.846;2.322;2022-12-20T07:24:46;1.00;;;1.00;;
62479;SDS011;48526;48.846;2.322;2022-12-20T07:27:11;4.00;;;2.00;;
62479;SDS011;48526;48.846;2.322;2022-12-20T07:29:37;2.25;;;2.00;;
62479;SDS011;48526;48.846;2.322;2022-12-20T07:32:06;3.00;;;2.00;;
62479;SDS011;48526;48.846;2.322;2022-12-20T07:34:32;2.50;;;2.25;;
62479;SDS011;48526;48.846;2.322;2022-12-20T07:36:57;2.25;;;1.50;;
62479;SDS011;48526;48.846;2.322;2022-12-20T07:39:23;4.00;;;3.00;;
62479;SDS011;48526;48.846;2.322;2022-12-20T07:41:48;2.00;;;2.00;;
62479;SDS011;48526;48.846;2.322;2022-12-20T07:44:18;2.50;;;2.00;;
62479;SDS011;48526;48.846;2.322;2022-12-20T07:46:43;2.00;;;1.25;;
62479;SDS011;48526;48.846;2.322;2022-12-20T07:49:09;2.00;;;2.00;;
62479;SDS011;48526;48.846;2.322;2022-12-20T07:51:35;3.00;;;2.00;;
62479;SDS011;48526;48.846;2.322;2022-12-20T07:54:03;2.00;;;2.00;;
62479;SDS011;48526;48.846;2.322;2022-12-20T07:56:33;2.00;;;2.00;;
62479;SDS011;48526;48.846;2.322;2022-12-20T07:59:01;1.00;;;1.00;;
62479;SDS011;48526;48.846;2.322;2022-12-20T08:01:27;3.00;;;2.00;;
62479;SDS011;48526;48.846;2.322;2022-12-20T08:03:55;2.50;;;2.50;;
62479;SDS011;48526;48.846;2.322;2022-12-20T08:06:33;3.75;;;1.25;;
62479;SDS011;48526;48.846;2.322;2022-12-20T08:09:01;3.25;;;2.00;;
62479;SDS011;48526;48.846;2.322;2022-12-20T08:11:29;3.00;;;2.00;;
62479;SDS011;48526;48.846;2.322;2022-12-20T08:13:57;1.75;;;1.75;;
62479;SDS011;48526;48.846;2.322;2022-12-20T08:16:23;3.50;;;1.00;;
62479;SDS011;48526;48.846;2.322;2022-12-20T08:18:48;2.00;;;2.00;;
62479;SDS011;48526;48.846;2.322;2022-12-20T08:21:14;3.25;;;2.25;;
62479;SDS011;48526;48.846;2.322;2022-12-20T08:23:39;3.75;;;3.00;;
62479;SDS011;48526;48.846;2.322;2022-12-20T08:26:05;2.00;;;2.00;;
62479;SDS011;48526;48.846;2.322;2022-12-20T08:28:31;2.50;;;2.50;;
62479;SDS011;48526;48.846;2.322;2022-12-20T08:31:00;2.50;;;2.50;;
62479;SDS011;48526;48.846;2.322;2022-12-20T08:33:29;2.50;;;2.00;;
62479;SDS011;48526;48.846;2.322;2022-12-20T08:35:57;3.00;;;3.00;;
62479;SDS011;48526;48.846;2.322;2022-12-20T08:38:24;2.00;;;2.00;;
62479;SDS011;48526;48.846;2.322;2022-12-20T08:40:51;2.00;;;2.00;;
62479;SDS011;48526;48.846;2.322;2022-12-20T08:43:16;1.25;;;1.25;;
62479;SDS011;48526;48.846;2.322;2022-12-20T08:45:42;3.00;;;2.00;;
62479;SDS011;48526;48.846;2.322;2022-12-20T08:48:07;4.00;;;3.00;;
62479;SDS011;48526;48.846;2.322;2022-12-20T08:50:32;3.75;;;3.00;;
62479;SDS011;48526;48.846;2.322;2022-12-20T08:52:58;2.50;;;1.00;;
62479;SDS011;48526;48.846;2.322;2022-12-20T08:55:23;5.00;;;2.00;;
62479;SDS011;48526;48.846;2.322;2022-12-20T08:57:48;3.00;;;2.00;;
62479;SDS011;48526;48.846;2.322;2022-12-20T09:00:14;2.00;;;2.00;;
62479;SDS011;48526;48.846;2.322;2022-12-20T09:02:40;3.25;;;3.25;;
62479;SDS011;48526;48.846;2.322;2022-12-20T09:05:05;2.00;;;2.00;;
62479;SDS011;48526;48.846;2.322;2022-12-20T09:07:31;4.75;;;2.50;;
62479;SDS011;48526;48.846;2.322;2022-12-20T09:09:56;2.00;;;2.00;;
62479;SDS011;48526;48.846;2.322;2022-12-20T09:12:22;3.75;;;2.50;;
62479;SDS011;48526;48.846;2.322;2022-12-20T09:14:47;3.00;;;2.00;;
62479;SDS011;48526;48.846;2.322;2022-12-20T09:17:13;1.00;;;1.00;;
62479;SDS011;48526;48.846;2.322;2022-12-20T09:19:38;2.00;;;1.75;;
62479;SDS011;48526;48.846;2.322;2022-12-20T09:22:03;3.00;;;2.25;;
62479;SDS011;48526;48.846;2.322;2022-12-20T09:24:29;1.00;;;1.00;;
62479;SDS011;48526;48.846;2.322;2022-12-20T09:26:54;4.75;;;3.50;;
62479;SDS011;48526;48.846;2.322;2022-12-20T09:29:19;4.00;;;2.00;;
62479;SDS011;48526;48.846;2.322;2022-12-20T09:31:45;3.00;;;3.00;;
62479;SDS011;48526;48.846;2.322;2022-12-20T09:34:10;2.75;;;2.75;;
62479;SDS011;48526;48.846;2.322;2022-12-20T09:36:36;2.75;;;2.75;;
62479;SDS011;48526;48.846;2.322;2022-12-20T09:39:02;4.00;;;4.00;;
62479;SDS011;48526;48.846;2.322;2022-12-20T09:41:31;4.00;;;4.00;;
62479;SDS011;48526;48.846;2.322;2022-12-20T09:43:59;2.25;;;2.25;;
62479;SDS011;48526;48.846;2.322;2022-12-20T09:46:28;4.00;;;4.00;;
62479;SDS011;48526;48.846;2.322;2022-12-20T09:48:54;3.00;;;2.00;;
62479;SDS011;48526;48.846;2.322;2022-12-20T09:54:35;3.00;;;3.00;;
62479;SDS011;48526;48.846;2.322;2022-12-20T09:59:36;5.00;;;3.75;;
62479;SDS011;48526;48.846;2.322;2022-12-20T10:02:06;4.25;;;4.25;;
62479;SDS011;48526;48.846;2.322;2022-12-20T10:04:34;4.00;;;2.50;;
62479;SDS011;48526;48.846;2.322;2022-12-20T10:15:17;3.00;;;3.00;;
62479;SDS011;48526;48.846;2.322;2022-12-20T10:23:38;4.00;;;3.00;;
62479;SDS011;48526;48.846;2.322;2022-12-20T10:26:08;9.00;;;5.50;;
62479;SDS011;48526;48.846;2.322;2022-12-20T10:28:35;5.00;;;5.00;;
62479;SDS011;48526;48.846;2.322;2022-12-20T10:31:06;7.50;;;2.75;;
62479;SDS011;48526;48.846;2.322;2022-12-20T10:33:35;5.00;;;3.75;;
62479;SDS011;48526;48.846;2.322;2022-12-20T10:36:19;5.00;;;2.00;;
62479;SDS011;48526;48.846;2.322;2022-12-20T10:38:45;4.25;;;4.25;;
62479;SDS011;48526;48.846;2.322;2022-12-20T10:41:17;2.25;;;2.25;;
62479;SDS011;48526;48.846;2.322;2022-12-20T10:43:52;3.75;;;3.75;;
62479;SDS011;48526;48.846;2.322;2022-12-20T10:46:42;5.00;;;5.00;;
62479;SDS011;48526;48.846;2.322;2022-12-20T10:51:50;7.75;;;4.75;;
62479;SDS011;48526;48.846;2.322;2022-12-20T10:54:24;4.25;;;2.25;;
62479;SDS011;48526;48.846;2.322;2022-12-20T10:56:53;6.25;;;5.00;;
62479;SDS011;48526;48.846;2.322;2022-12-20T11:01:54;4.25;;;3.25;;
62479;SDS011;48526;48.846;2.322;2022-12-20T11:06:59;5.00;;;5.00;;
62479;SDS011;48526;48.846;2.322;2022-12-20T11:14:40;9.00;;;8.25;;
62479;SDS011;48526;48.846;2.322;2022-12-20T11:22:35;4.50;;;4.50;;
62479;SDS011;48526;48.846;2.322;2022-12-20T11:28:16;5.00;;;4.75;;
62479;SDS011;48526;48.846;2.322;2022-12-20T11:31:26;6.75;;;5.00;;
62479;SDS011;48526;48.846;2.322;2022-12-20T11:42:20;7.25;;;6.00;;
62479;SDS011;48526;48.846;2.322;2022-12-20T11:53:39;10.50;;;10.50;;
62479;SDS011;48526;48.846;2.322;2022-12-20T11:56:31;15.75;;;10.25;;
62479;SDS011;48526;48.846;2.322;2022-12-20T11:59:05;7.00;;;6.50;;
62479;SDS011;48526;48.846;2.322;2022-12-20T12:01:57;10.50;;;10.00;;
62479;SDS011;48526;48.846;2.322;2022-12-20T12:04:25;9.50;;;9.50;;
62479;SDS011;48526;48.846;2.322;2022-12-20T12:07:02;7.75;;;7.50;;
62479;SDS011;48526;48.846;2.322;2022-12-20T12:09:54;5.00;;;5.00;;
62479;SDS011;48526;48.846;2.322;2022-12-20T12:12:32;9.75;;;7.50;;
62479;SDS011;48526;48.846;2.322;2022-12-20T12:22:52;10.25;;;9.00;;
62479;SDS011;48526;48.846;2.322;2022-12-20T12:25:22;6.25;;;6.25;;
62479;SDS011;48526;48.846;2.322;2022-12-20T12:27:47;11.00;;;9.50;;
62479;SDS011;48526;48.846;2.322;2022-12-20T12:30:14;10.50;;;8.00;;
62479;SDS011;48526;48.846;2.322;2022-12-20T12:32:42;16.00;;;14.00;;
62479;SDS011;48526;48.846;2.322;2022-12-20T12:43:53;10.00;;;9.75;;
62479;SDS011;48526;48.846;2.322;2022-12-20T12:46:24;10.25;;;9.75;;
62479;SDS011;48526;48.846;2.322;2022-12-20T12:51:34;14.00;;;11.25;;
62479;SDS011;48526;48.846;2.322;2022-12-20T12:54:11;10.00;;;8.50;;
62479;SDS011;48526;48.846;2.322;2022-12-20T12:56:45;8.50;;;5.75;;
62479;SDS011;48526;48.846;2.322;2022-12-20T13:05:03;7.25;;;6.75;;
62479;SDS011;48526;48.846;2.322;2022-12-20T13:07:44;10.25;;;6.75;;
62479;SDS011;48526;48.846;2.322;2022-12-20T13:17:49;10.75;;;7.75;;
62479;SDS011;48526;48.846;2.322;2022-12-20T13:20:23;4.00;;;4.00;;
62479;SDS011;48526;48.846;2.322;2022-12-20T13:25:43;5.00;;;5.00;;
62479;SDS011;48526;48.846;2.322;2022-12-20T13:31:33;5.00;;;5.00;;
62479;SDS011;48526;48.846;2.322;2022-12-20T13:41:30;6.00;;;6.00;;
62479;SDS011;48526;48.846;2.322;2022-12-20T13:44:46;8.00;;;5.00;;
62479;SDS011;48526;48.846;2.322;2022-12-20T13:46:59;3.25;;;3.25;;
62479;SDS011;48526;48.846;2.322;2022-12-20T13:49:36;6.75;;;3.00;;
62479;SDS011;48526;48.846;2.322;2022-12-20T13:54:35;2.75;;;2.75;;
62479;SDS011;48526;48.846;2.322;2022-12-20T13:57:13;6.75;;;5.25;;
62479;SDS011;48526;48.846;2.322;2022-12-20T13:59:43;4.75;;;3.00;;
62479;SDS011;48526;48.846;2.322;2022-12-20T14:02:16;4.50;;;4.50;;
62479;SDS011;48526;48.846;2.322;2022-12-20T14:04:44;4.00;;;4.00;;
62479;SDS011;48526;48.846;2.322;2022-12-20T14:07:15;8.50;;;7.00;;
62479;SDS011;48526;48.846;2.322;2022-12-20T14:09:43;8.00;;;4.00;;
62479;SDS011;48526;48.846;2.322;2022-12-20T14:12:13;5.00;;;5.00;;
62479;SDS011;48526;48.846;2.322;2022-12-20T14:14:47;6.50;;;4.25;;
62479;SDS011;48526;48.846;2.322;2022-12-20T14:17:21;7.50;;;4.50;;
62479;SDS011;48526;48.846;2.322;2022-12-20T14:22:26;6.75;;;4.75;;
62479;SDS011;48526;48.846;2.322;2022-12-20T14:24:52;7.00;;;4.75;;
62479;SDS011;48526;48.846;2.322;2022-12-20T14:27:19;7.00;;;4.50;;
62479;SDS011;48526;48.846;2.322;2022-12-20T14:29:44;5.00;;;5.00;;
62479;SDS011;48526;48.846;2.322;2022-12-20T14:32:17;8.00;;;8.00;;
62479;SDS011;48526;48.846;2.322;2022-12-20T14:34:43;3.75;;;3.75;;
62479;SDS011;48526;48.846;2.322;2022-12-20T14:37:25;7.00;;;6.75;;
62479;SDS011;48526;48.846;2.322;2022-12-20T14:40:13;5.75;;;4.00;;
62479;SDS011;48526;48.846;2.322;2022-12-20T14:42:42;3.75;;;3.75;;
62479;SDS011;48526;48.846;2.322;2022-12-20T14:47:34;7.00;;;7.00;;
62479;SDS011;48526;48.846;2.322;2022-12-20T14:50:03;7.00;;;5.50;;
62479;SDS011;48526;48.846;2.322;2022-12-20T14:54:59;7.00;;;5.00;;
62479;SDS011;48526;48.846;2.322;2022-12-20T15:10:37;4.25;;;4.00;;
62479;SDS011;48526;48.846;2.322;2022-12-20T15:13:07;6.50;;;5.50;;
62479;SDS011;48526;48.846;2.322;2022-12-20T15:15:36;6.00;;;5.75;;
62479;SDS011;48526;48.846;2.322;2022-12-20T15:18:06;5.75;;;4.25;;
62479;SDS011;48526;48.846;2.322;2022-12-20T15:20:34;5.00;;;5.00;;
62479;SDS011;48526;48.846;2.322;2022-12-20T15:23:00;7.00;;;5.50;;
62479;SDS011;48526;48.846;2.322;2022-12-20T15:25:25;9.25;;;8.00;;
62479;SDS011;48526;48.846;2.322;2022-12-20T15:27:51;8.25;;;7.00;;
62479;SDS011;48526;48.846;2.322;2022-12-20T15:30:17;6.50;;;5.50;;
62479;SDS011;48526;48.846;2.322;2022-12-20T15:32:43;5.00;;;5.00;;
62479;SDS011;48526;48.846;2.322;2022-12-20T15:35:12;9.00;;;5.00;;
62479;SDS011;48526;48.846;2.322;2022-12-20T15:37:38;7.75;;;6.50;;
62479;SDS011;48526;48.846;2.322;2022-12-20T15:40:04;7.50;;;7.00;;
62479;SDS011;48526;48.846;2.322;2022-12-20T15:42:30;10.25;;;9.00;;
62479;SDS011;48526;48.846;2.322;2022-12-20T15:44:55;4.25;;;4.25;;
62479;SDS011;48526;48.846;2.322;2022-12-20T15:47:21;7.50;;;6.50;;
62479;SDS011;48526;48.846;2.322;2022-12-20T15:49:47;8.75;;;8.00;;
62479;SDS011;48526;48.846;2.322;2022-12-20T15:52:15;5.75;;;5.75;;
62479;SDS011;48526;48.846;2.322;2022-12-20T15:54:43;10.00;;;8.00;;
62479;SDS011;48526;48.846;2.322;2022-12-20T15:57:10;10.50;;;7.75;;
62479;SDS011;48526;48.846;2.322;2022-12-20T15:59:37;9.00;;;7.00;;
62479;SDS011;48526;48.846;2.322;2022-12-20T16:02:07;7.50;;;7.00;;
62479;SDS011;48526;48.846;2.322;2022-12-20T16:04:44;3.50;;;3.50;;
62479;SDS011;48526;48.846;2.322;2022-12-20T16:07:09;7.25;;;7.25;;
62479;SDS011;48526;48.846;2.322;2022-12-20T16:09:35;7.25;;;6.00;;
62479;SDS011;48526;48.846;2.322;2022-12-20T16:12:01;9.25;;;7.50;;
62479;SDS011;48526;48.846;2.322;2022-12-20T16:14:27;8.75;;;8.00;;
62479;SDS011;48526;48.846;2.322;2022-12-20T16:16:52;6.50;;;6.50;;
62479;SDS011;48526;48.846;2.322;2022-12-20T16:19:18;9.25;;;8.00;;
62479;SDS011;48526;48.846;2.322;2022-12-20T16:21:46;8.00;;;8.00;;
62479;SDS011;48526;48.846;2.322;2022-12-20T16:24:14;8.00;;;5.00;;
62479;SDS011;48526;48.846;2.322;2022-12-20T16:26:41;11.50;;;7.00;;
62479;SDS011;48526;48.846;2.322;2022-12-20T16:29:06;8.00;;;6.50;;
62479;SDS011;48526;48.846;2.322;2022-12-20T16:31:36;7.00;;;6.50;;
62479;SDS011;48526;48.846;2.322;2022-12-20T16:34:16;6.50;;;6.50;;
62479;SDS011;48526;48.846;2.322;2022-12-20T16:36:42;13.75;;;8.00;;
62479;SDS011;48526;48.846;2.322;2022-12-20T16:39:08;6.00;;;6.00;;
62479;SDS011;48526;48.846;2.322;2022-12-20T16:41:35;6.00;;;5.00;;
62479;SDS011;48526;48.846;2.322;2022-12-20T16:44:02;8.75;;;5.50;;
62479;SDS011;48526;48.846;2.322;2022-12-20T16:46:29;8.50;;;8.50;;
62479;SDS011;48526;48.846;2.322;2022-12-20T16:48:55;7.00;;;7.00;;
62479;SDS011;48526;48.846;2.322;2022-12-20T16:53:50;10.50;;;7.25;;
62479;SDS011;48526;48.846;2.322;2022-12-20T16:56:22;8.50;;;7.50;;
62479;SDS011;48526;48.846;2.322;2022-12-20T16:58:48;8.50;;;7.50;;
62479;SDS011;48526;48.846;2.322;2022-12-20T17:01:20;10.00;;;7.00;;
62479;SDS011;48526;48.846;2.322;2022-12-20T17:03:47;10.75;;;10.00;;
62479;SDS011;48526;48.846;2.322;2022-12-20T17:06:14;8.50;;;7.00;;
62479;SDS011;48526;48.846;2.322;2022-12-20T17:08:41;9.00;;;7.25;;
62479;SDS011;48526;48.846;2.322;2022-12-20T17:11:13;10.25;;;8.00;;
62479;SDS011;48526;48.846;2.322;2022-12-20T17:13:49;12.75;;;11.75;;
62479;SDS011;48526;48.846;2.322;2022-12-20T17:16:16;14.25;;;9.25;;
62479;SDS011;48526;48.846;2.322;2022-12-20T17:18:43;11.75;;;11.75;;
62479;SDS011;48526;48.846;2.322;2022-12-20T17:23:51;7.50;;;7.00;;
62479;SDS011;48526;48.846;2.322;2022-12-20T17:26:19;8.50;;;8.50;;
62479;SDS011;48526;48.846;2.322;2022-12-20T17:28:48;8.50;;;8.50;;
62479;SDS011;48526;48.846;2.322;2022-12-20T17:31:26;9.50;;;8.50;;
62479;SDS011;48526;48.846;2.322;2022-12-20T17:33:56;9.00;;;8.00;;
62479;SDS011;48526;48.846;2.322;2022-12-20T17:36:22;10.00;;;10.00;;
62479;SDS011;48526;48.846;2.322;2022-12-20T17:38:47;10.25;;;8.50;;
62479;SDS011;48526;48.846;2.322;2022-12-20T17:41:19;12.00;;;9.00;;
62479;SDS011;48526;48.846;2.322;2022-12-20T17:43:48;11.00;;;10.00;;
62479;SDS011;48526;48.846;2.322;2022-12-20T17:46:14;12.00;;;10.00;;
62479;SDS011;48526;48.846;2.322;2022-12-20T17:48:39;10.50;;;9.00;;
62479;SDS011;48526;48.846;2.322;2022-12-20T17:53:45;11.00;;;11.00;;
62479;SDS011;48526;48.846;2.322;2022-12-20T17:56:12;12.25;;;11.00;;
62479;SDS011;48526;48.846;2.322;2022-12-20T17:58:39;10.75;;;9.75;;
62479;SDS011;48526;48.846;2.322;2022-12-20T18:01:05;10.50;;;9.50;;
62479;SDS011;48526;48.846;2.322;2022-12-20T18:03:30;8.00;;;8.00;;
62479;SDS011;48526;48.846;2.322;2022-12-20T18:05:56;11.50;;;10.50;;
62479;SDS011;48526;48.846;2.322;2022-12-20T18:08:21;12.00;;;10.25;;
62479;SDS011;48526;48.846;2.322;2022-12-20T18:10:46;12.50;;;9.00;;
62479;SDS011;48526;48.846;2.322;2022-12-20T18:13:12;10.75;;;10.75;;
62479;SDS011;48526;48.846;2.322;2022-12-20T18:15:37;12.00;;;11.75;;
62479;SDS011;48526;48.846;2.322;2022-12-20T18:18:03;13.75;;;10.00;;
62479;SDS011;48526;48.846;2.322;2022-12-20T18:20:28;13.00;;;12.25;;
62479;SDS011;48526;48.846;2.322;2022-12-20T18:22:53;21.67;;;14.00;;
62479;SDS011;48526;48.846;2.322;2022-12-20T18:25:19;15.00;;;11.00;;
62479;SDS011;48526;48.846;2.322;2022-12-20T18:27:44;16.00;;;13.00;;
62479;SDS011;48526;48.846;2.322;2022-12-20T18:30:10;11.50;;;9.75;;
62479;SDS011;48526;48.846;2.322;2022-12-20T18:32:36;9.00;;;9.00;;
62479;SDS011;48526;48.846;2.322;2022-12-20T18:35:02;5.50;;;5.50;;
62479;SDS011;48526;48.846;2.322;2022-12-20T18:37:29;11.75;;;10.75;;
62479;SDS011;48526;48.846;2.322;2022-12-20T18:39:55;17.25;;;15.00;;
62479;SDS011;48526;48.846;2.322;2022-12-20T18:42:20;14.75;;;10.75;;
62479;SDS011;48526;48.846;2.322;2022-12-20T18:44:45;12.50;;;10.25;;
62479;SDS011;48526;48.846;2.322;2022-12-20T18:47:12;14.75;;;11.00;;
62479;SDS011;48526;48.846;2.322;2022-12-20T18:49:37;10.75;;;10.00;;
62479;SDS011;48526;48.846;2.322;2022-12-20T18:52:06;18.00;;;15.00;;
62479;SDS011;48526;48.846;2.322;2022-12-20T18:54:31;12.75;;;10.50;;
62479;SDS011;48526;48.846;2.322;2022-12-20T18:56:57;11.00;;;11.00;;
62479;SDS011;48526;48.846;2.322;2022-12-20T18:59:23;13.00;;;12.75;;
62479;SDS011;48526;48.846;2.322;2022-12-20T19:01:48;11.75;;;11.75;;
62479;SDS011;48526;48.846;2.322;2022-12-20T19:04:16;14.50;;;11.50;;
62479;SDS011;48526;48.846;2.322;2022-12-20T19:06:43;13.25;;;11.00;;
62479;SDS011;48526;48.846;2.322;2022-12-20T19:09:09;14.25;;;8.50;;
62479;SDS011;48526;48.846;2.322;2022-12-20T19:11:37;17.25;;;10.75;;
62479;SDS011;48526;48.846;2.322;2022-12-20T19:14:03;11.00;;;9.50;;
62479;SDS011;48526;48.846;2.322;2022-12-20T19:16:28;14.25;;;12.50;;
62479;SDS011;48526;48.846;2.322;2022-12-20T19:18:56;14.25;;;14.25;;
62479;SDS011;48526;48.846;2.322;2022-12-20T19:21:25;13.00;;;10.50;;
62479;SDS011;48526;48.846;2.322;2022-12-20T19:23:53;13.25;;;11.50;;
62479;SDS011;48526;48.846;2.322;2022-12-20T19:26:20;9.75;;;8.25;;
62479;SDS011;48526;48.846;2.322;2022-12-20T19:28:53;8.75;;;8.25;;
62479;SDS011;48526;48.846;2.322;2022-12-20T19:31:26;10.50;;;10.00;;
62479;SDS011;48526;48.846;2.322;2022-12-20T19:33:54;7.00;;;5.50;;
62479;SDS011;48526;48.846;2.322;2022-12-20T19:36:27;7.00;;;6.50;;
62479;SDS011;48526;48.846;2.322;2022-12-20T19:38:55;11.50;;;9.00;;
62479;SDS011;48526;48.846;2.322;2022-12-20T19:41:23;7.00;;;7.00;;
62479;SDS011;48526;48.846;2.322;2022-12-20T19:43:50;7.00;;;7.00;;
62479;SDS011;48526;48.846;2.322;2022-12-20T19:46:16;7.75;;;7.75;;
62479;SDS011;48526;48.846;2.322;2022-12-20T19:48:44;15.50;;;8.25;;
62479;SDS011;48526;48.846;2.322;2022-12-20T19:51:10;9.00;;;9.00;;
62479;SDS011;48526;48.846;2.322;2022-12-20T19:53:37;8.50;;;7.25;;
62479;SDS011;48526;48.846;2.322;2022-12-20T19:56:04;8.75;;;8.25;;
62479;SDS011;48526;48.846;2.322;2022-12-20T19:58:32;9.25;;;9.25;;
62479;SDS011;48526;48.846;2.322;2022-12-20T20:00:58;12.00;;;11.50;;
62479;SDS011;48526;48.846;2.322;2022-12-20T20:03:23;11.25;;;10.50;;
62479;SDS011;48526;48.846;2.322;2022-12-20T20:05:49;11.00;;;9.75;;
62479;SDS011;48526;48.846;2.322;2022-12-20T20:08:14;8.50;;;8.50;;
62479;SDS011;48526;48.846;2.322;2022-12-20T20:10:40;10.75;;;9.25;;
62479;SDS011;48526;48.846;2.322;2022-12-20T20:13:06;12.50;;;11.25;;
62479;SDS011;48526;48.846;2.322;2022-12-20T20:15:32;11.50;;;9.25;;
62479;SDS011;48526;48.846;2.322;2022-12-20T20:17:58;9.50;;;9.00;;
62479;SDS011;48526;48.846;2.322;2022-12-20T20:20:23;10.25;;;10.00;;
62479;SDS011;48526;48.846;2.322;2022-12-20T20:22:49;9.00;;;9.00;;
62479;SDS011;48526;48.846;2.322;2022-12-20T20:25:15;8.75;;;7.50;;
62479;SDS011;48526;48.846;2.322;2022-12-20T20:27:41;8.00;;;7.75;;
62479;SDS011;48526;48.846;2.322;2022-12-20T20:30:08;10.50;;;8.00;;
62479;SDS011;48526;48.846;2.322;2022-12-20T20:32:38;8.00;;;7.00;;
62479;SDS011;48526;48.846;2.322;2022-12-20T20:35:04;10.00;;;9.75;;
62479;SDS011;48526;48.846;2.322;2022-12-20T20:37:29;9.00;;;9.00;;
62479;SDS011;48526;48.846;2.322;2022-12-20T20:39:55;10.50;;;8.50;;
62479;SDS011;48526;48.846;2.322;2022-12-20T20:42:20;11.00;;;9.25;;
62479;SDS011;48526;48.846;2.322;2022-12-20T20:44:47;10.50;;;6.75;;
62479;SDS011;48526;48.846;2.322;2022-12-20T20:47:12;8.75;;;8.75;;
62479;SDS011;48526;48.846;2.322;2022-12-20T20:49:37;10.50;;;8.00;;
62479;SDS011;48526;48.846;2.322;2022-12-20T20:52:03;10.75;;;10.75;;
62479;SDS011;48526;48.846;2.322;2022-12-20T20:54:28;8.25;;;8.25;;
62479;SDS011;48526;48.846;2.322;2022-12-20T20:56:54;10.00;;;9.00;;
62479;SDS011;48526;48.846;2.322;2022-12-20T20:59:23;11.00;;;8.00;;
62479;SDS011;48526;48.846;2.322;2022-12-20T21:01:49;8.50;;;5.00;;
62479;SDS011;48526;48.846;2.322;2022-12-20T21:04:14;7.75;;;7.75;;
62479;SDS011;48526;48.846;2.322;2022-12-20T21:06:39;9.25;;;8.00;;
62479;SDS011;48526;48.846;2.322;2022-12-20T21:09:05;11.25;;;8.75;;
62479;SDS011;48526;48.846;2.322;2022-12-20T21:11:31;14.00;;;12.00;;
62479;SDS011;48526;48.846;2.322;2022-12-20T21:13:57;11.75;;;11.25;;
62479;SDS011;48526;48.846;2.322;2022-12-20T21:16:22;13.75;;;10.50;;
62479;SDS011;48526;48.846;2.322;2022-12-20T21:18:49;12.25;;;11.25;;
62479;SDS011;48526;48.846;2.322;2022-12-20T21:21:15;9.00;;;9.00;;
62479;SDS011;48526;48.846;2.322;2022-12-20T21:23:44;12.25;;;9.00;;
62479;SDS011;48526;48.846;2.322;2022-12-20T21:26:10;13.50;;;9.00;;
62479;SDS011;48526;48.846;2.322;2022-12-20T21:28:36;14.00;;;11.75;;
62479;SDS011;48526;48.846;2.322;2022-12-20T21:31:05;9.00;;;9.00;;
62479;SDS011;48526;48.846;2.322;2022-12-20T21:33:35;13.00;;;10.00;;
62479;SDS011;48526;48.846;2.322;2022-12-20T21:36:09;12.25;;;10.50;;